Avon, Minnesota
Current Conditions -  °F | °C
As of 2:53 AM on Sunday 26 Oct 2014 (Local Time) from KSTC Reporting Station
Clear Clear  
Wind Chill: 34°   Ceiling: Unl
Heat Index: 34°   Visibility: 10mi
Dew Point: 28°   Wind: 3mph
Humidity: 79%   Direction: 50°NE
Pressure: 30.02"   Gusts: NA
Location:  45.61°N, 94.45°W
Report Text: KSTC 260753Z AUTO 05003KT 10SM CLR 01/M02 A3002 RMK AO2 SLP178 T00111022
Loading
Personal Weather Stations






























Interactive Weather Map New forecast layout! Learn more

10-Day Weather Forecast

Advertisements
Track Severe Weather on mobile